Time;durP1;ratioP1;P1;durP2;ratioP2;P2;SDS_P1;SDS_P2;PMS_P1;PMS_P2;Temp;Humidity;BMP_temperature;BMP_pressure;BME280_temperature;BME280_humidity;BME280_pressure;Samples;Min_cycle;Max_cycle;Signal;HPM_P1;HPM_P2
2024/03/26 00:02:23;;;;;;;7.60;1.57;;;6.70;99.90;;;;;;5071662;28;20024;-49
2024/03/26 00:04:50;;;;;;;7.97;1.70;;;6.70;99.90;;;;;;5071488;28;20033;-49
2024/03/26 00:07:15;;;;;;;7.33;2.10;;;6.70;99.90;;;;;;5071667;28;20387;-48
2024/03/26 00:09:41;;;;;;;5.70;1.30;;;6.70;99.90;;;;;;5073054;28;20037;-51
2024/03/26 00:12:07;;;;;;;4.23;1.30;;;6.70;99.90;;;;;;5075855;28;20063;-51
2024/03/26 00:14:32;;;;;;;6.17;1.87;;;6.60;99.90;;;;;;5075491;28;20468;-53
2024/03/26 00:16:58;;;;;;;8.37;1.60;;;6.60;99.90;;;;;;5075558;28;20037;-49
2024/03/26 00:19:24;;;;;;;5.53;1.30;;;6.60;99.90;;;;;;5057662;28;20036;-49
2024/03/26 00:21:49;;;;;;;5.23;1.20;;;6.50;99.90;;;;;;5075638;28;20094;-49
2024/03/26 00:24:15;;;;;;;3.67;1.50;;;6.50;99.90;;;;;;5075481;28;20470;-48
2024/03/26 00:26:40;;;;;;;8.07;1.63;;;6.60;99.90;;;;;;5075544;28;20038;-52
2024/03/26 00:29:06;;;;;;;8.13;1.80;;;6.50;99.90;;;;;;5075340;28;20420;-51
2024/03/26 00:31:33;;;;;;;10.47;2.00;;;6.50;99.90;;;;;;5075361;28;20070;-52
2024/03/26 00:33:59;;;;;;;9.73;2.47;;;6.50;99.90;;;;;;5075391;28;20028;-50
2024/03/26 00:36:26;;;;;;;6.60;1.97;;;6.40;99.90;;;;;;5075028;28;20040;-51
2024/03/26 00:38:51;;;;;;;7.93;1.90;;;6.40;99.90;;;;;;5075208;28;20025;-50
2024/03/26 00:41:17;;;;;;;5.40;2.00;;;6.40;99.90;;;;;;5075301;28;20082;-50
2024/03/26 00:43:42;;;;;;;8.77;1.83;;;6.40;99.90;;;;;;5075014;28;20477;-49
2024/03/26 00:46:08;;;;;;;3.83;1.57;;;6.30;99.90;;;;;;5074871;28;20133;-49
2024/03/26 00:48:33;;;;;;;6.40;1.77;;;6.30;99.90;;;;;;5074988;28;20024;-53
2024/03/26 00:50:59;;;;;;;7.80;1.80;;;6.20;99.90;;;;;;5074972;28;20071;-49
2024/03/26 00:53:25;;;;;;;4.70;1.77;;;6.20;99.90;;;;;;5074971;28;20029;-50
2024/03/26 00:55:50;;;;;;;7.13;1.70;;;6.10;99.90;;;;;;5074681;28;20073;-52
2024/03/26 00:58:16;;;;;;;5.97;1.40;;;6.10;99.90;;;;;;5056850;28;20025;-50
2024/03/26 01:00:41;;;;;;;4.90;1.67;;;6.10;99.90;;;;;;5074690;28;20167;-48
2024/03/26 01:03:07;;;;;;;7.13;2.37;;;6.00;99.90;;;;;;5074734;28;20029;-51
2024/03/26 01:05:33;;;;;;;6.77;2.20;;;6.00;99.90;;;;;;5074445;28;20028;-52
2024/03/26 01:07:59;;;;;;;8.13;1.93;;;5.90;99.90;;;;;;5074704;28;20055;-53
2024/03/26 01:10:24;;;;;;;5.93;2.00;;;5.90;99.90;;;;;;5074547;28;20102;-49
2024/03/26 01:12:50;;;;;;;5.30;1.70;;;5.90;99.90;;;;;;5074548;28;20487;-50
2024/03/26 01:15:16;;;;;;;7.73;1.83;;;5.80;99.90;;;;;;5074471;28;20032;-51
2024/03/26 01:17:42;;;;;;;9.47;1.97;;;5.80;99.90;;;;;;5056426;28;20607;-50
2024/03/26 01:20:07;;;;;;;7.03;2.10;;;5.80;99.90;;;;;;5073117;28;20119;-50
2024/03/26 01:22:33;;;;;;;11.17;2.27;;;5.80;99.90;;;;;;5074504;28;20029;-52
2024/03/26 01:24:59;;;;;;;7.93;2.77;;;5.80;99.90;;;;;;5074299;28;20399;-48
2024/03/26 01:27:24;;;;;;;8.23;2.43;;;5.70;99.90;;;;;;5074280;28;20024;-50
2024/03/26 01:29:50;;;;;;;6.43;1.97;;;5.70;99.90;;;;;;5074196;28;20031;-52
2024/03/26 01:32:15;;;;;;;7.10;1.73;;;5.70;99.90;;;;;;5056231;28;20033;-50
2024/03/26 01:34:41;;;;;;;4.67;1.70;;;5.70;99.90;;;;;;5074111;28;20051;-50
2024/03/26 01:37:06;;;;;;;5.73;1.60;;;5.60;99.90;;;;;;5074060;28;20029;-51
2024/03/26 01:39:32;;;;;;;4.07;1.50;;;5.70;99.90;;;;;;5074013;28;20048;-50
2024/03/26 01:41:58;;;;;;;6.63;1.93;;;5.70;99.90;;;;;;5073988;28;20568;-52
2024/03/26 01:44:23;;;;;;;5.33;1.77;;;5.60;99.90;;;;;;5073849;28;20115;-52
2024/03/26 01:46:49;;;;;;;7.30;1.80;;;5.60;99.90;;;;;;5073974;28;20028;-49
2024/03/26 01:49:16;;;;;;;3.93;1.53;;;5.60;99.90;;;;;;5074001;28;20041;-48
2024/03/26 01:51:44;;;;;;;5.23;2.10;;;5.60;99.90;;;;;;5073838;28;20025;-53
2024/03/26 01:54:10;;;;;;;5.60;1.60;;;5.60;99.90;;;;;;5073954;28;20424;-51
2024/03/26 01:56:38;;;;;;;5.20;1.60;;;5.50;99.90;;;;;;5073582;28;20036;-51
2024/03/26 01:59:05;;;;;;;5.70;1.70;;;5.50;99.90;;;;;;5073707;28;20037;-50
2024/03/26 02:01:31;;;;;;;6.77;1.77;;;5.50;99.90;;;;;;5073621;28;20020;-49
2024/03/26 02:03:57;;;;;;;5.70;1.50;;;5.50;99.90;;;;;;5073648;28;20557;-48
2024/03/26 02:06:23;;;;;;;8.57;1.83;;;5.50;99.90;;;;;;5073407;28;20028;-52
2024/03/26 02:08:51;;;;;;;6.43;1.80;;;5.50;99.90;;;;;;5073583;28;20036;-49
2024/03/26 02:11:17;;;;;;;5.90;2.17;;;5.50;99.90;;;;;;5055577;28;20029;-51
2024/03/26 02:13:46;;;;;;;8.30;1.80;;;5.50;99.90;;;;;;5073401;28;20484;-50
2024/03/26 02:16:12;;;;;;;5.72;1.90;;;5.50;99.90;;;;;;5073223;28;20048;-50
2024/03/26 02:18:37;;;;;;;9.93;2.43;;;5.50;99.90;;;;;;5073323;28;20029;-50
2024/03/26 02:21:04;;;;;;;8.67;1.70;;;5.50;99.90;;;;;;5073244;28;20068;-48
2024/03/26 02:23:29;;;;;;;6.70;1.90;;;5.50;99.90;;;;;;5073215;28;20036;-49
2024/03/26 02:25:55;;;;;;;6.03;1.80;;;5.50;99.90;;;;;;5071773;28;20424;-49
2024/03/26 02:28:20;;;;;;;7.47;2.03;;;5.40;99.90;;;;;;5073191;28;20074;-48
2024/03/26 02:30:46;;;;;;;3.17;1.50;;;5.40;99.90;;;;;;5073101;28;20032;-48
2024/03/26 02:33:12;;;;;;;6.10;1.73;;;5.40;99.90;;;;;;5054504;28;20032;-49
2024/03/26 02:35:37;;;;;;;7.33;1.90;;;5.40;99.90;;;;;;5072893;28;20492;-50
2024/03/26 02:38:03;;;;;;;6.63;2.03;;;5.40;99.90;;;;;;5073384;28;20052;-49
2024/03/26 02:40:28;;;;;;;6.50;2.20;;;5.40;99.90;;;;;;5072749;28;20443;-50
2024/03/26 02:42:54;;;;;;;7.47;2.13;;;5.40;99.90;;;;;;5072865;28;20024;-50
2024/03/26 02:45:20;;;;;;;5.03;3.00;;;5.40;99.90;;;;;;5072777;28;20392;-49
2024/03/26 02:47:46;;;;;;;5.97;1.90;;;5.30;99.90;;;;;;5072767;28;20500;-50
2024/03/26 02:50:11;;;;;;;6.07;1.90;;;5.30;99.90;;;;;;5072635;28;20037;-50
2024/03/26 02:52:37;;;;;;;6.43;1.90;;;5.30;99.90;;;;;;5072682;28;20040;-49
2024/03/26 02:55:02;;;;;;;9.00;2.00;;;5.40;99.90;;;;;;5054542;28;20043;-49
2024/03/26 02:57:28;;;;;;;8.97;2.17;;;5.40;99.90;;;;;;5054349;28;20066;-49
2024/03/26 02:59:53;;;;;;;8.93;2.47;;;5.40;99.90;;;;;;5072409;28;20028;-50
2024/03/26 03:02:20;;;;;;;7.63;1.97;;;5.40;99.90;;;;;;5072543;28;20120;-49
2024/03/26 03:04:46;;;;;;;7.40;1.97;;;5.50;99.90;;;;;;5072309;28;20512;-49
2024/03/26 03:07:11;;;;;;;4.50;1.93;;;5.40;99.90;;;;;;5072303;28;20032;-50
2024/03/26 03:09:37;;;;;;;8.60;2.00;;;5.40;99.90;;;;;;5072184;28;20041;-50
2024/03/26 03:12:03;;;;;;;5.37;2.00;;;5.50;99.90;;;;;;5072382;28;20021;-50
2024/03/26 03:14:29;;;;;;;6.37;1.93;;;5.50;99.90;;;;;;5072292;28;20082;-50
2024/03/26 03:16:54;;;;;;;5.40;1.70;;;5.50;99.90;;;;;;5072178;28;20347;-49
2024/03/26 03:19:20;;;;;;;6.40;2.03;;;5.40;99.90;;;;;;5072261;28;20108;-51
2024/03/26 03:21:46;;;;;;;7.67;2.63;;;5.40;99.90;;;;;;5072129;28;20028;-49
2024/03/26 03:24:11;;;;;;;8.27;2.20;;;5.40;99.90;;;;;;5071964;28;20039;-51
2024/03/26 03:26:37;;;;;;;7.83;2.07;;;5.40;99.90;;;;;;5072078;28;20037;-49
2024/03/26 03:29:03;;;;;;;5.97;1.73;;;5.40;99.90;;;;;;5072074;28;20028;-49
2024/03/26 03:31:29;;;;;;;7.47;1.90;;;5.40;99.90;;;;;;5072045;28;20445;-49
2024/03/26 03:33:55;;;;;;;8.07;2.97;;;5.40;99.90;;;;;;5071980;28;20040;-49
2024/03/26 03:36:21;;;;;;;7.70;2.03;;;5.40;99.90;;;;;;5071746;28;20024;-48
2024/03/26 03:38:47;;;;;;;5.63;1.63;;;5.40;99.90;;;;;;5071854;28;20485;-51
2024/03/26 03:41:13;;;;;;;15.07;3.87;;;5.30;99.90;;;;;;5071811;28;20477;-50
2024/03/26 03:43:38;;;;;;;7.70;2.20;;;5.30;99.90;;;;;;5053990;28;20028;-51
2024/03/26 03:46:04;;;;;;;6.17;1.80;;;5.30;99.90;;;;;;5053847;28;20028;-49
2024/03/26 03:48:30;;;;;;;5.50;2.30;;;5.30;99.90;;;;;;5071857;28;20086;-50
2024/03/26 03:50:56;;;;;;;6.27;1.83;;;5.30;99.90;;;;;;5053702;28;20039;-48
2024/03/26 03:53:22;;;;;;;6.70;1.73;;;5.30;99.90;;;;;;5071889;28;20463;-49
2024/03/26 03:55:47;;;;;;;6.10;1.97;;;5.30;99.90;;;;;;5071375;28;20036;-48
2024/03/26 03:58:13;;;;;;;7.00;2.10;;;5.20;99.90;;;;;;5072004;28;20308;-48
2024/03/26 04:00:39;;;;;;;5.40;1.70;;;5.20;99.90;;;;;;5071590;28;20024;-49
2024/03/26 04:03:04;;;;;;;5.70;2.00;;;5.20;99.90;;;;;;5053820;28;20032;-49
2024/03/26 04:05:30;;;;;;;7.10;1.87;;;5.20;99.90;;;;;;5071468;28;20025;-50
2024/03/26 04:07:55;;;;;;;4.83;2.00;;;5.20;99.90;;;;;;5071511;28;20052;-48
2024/03/26 04:10:21;;;;;;;6.07;1.97;;;5.20;99.90;;;;;;5071580;28;20028;-50
2024/03/26 04:12:47;;;;;;;6.20;1.87;;;5.20;99.90;;;;;;5071830;28;20068;-48
2024/03/26 04:15:13;;;;;;;5.80;1.77;;;5.20;99.90;;;;;;5071510;28;20060;-49
2024/03/26 04:17:38;;;;;;;4.57;1.87;;;5.20;99.90;;;;;;5071390;28;20157;-50
2024/03/26 04:20:05;;;;;;;6.43;1.80;;;5.20;99.90;;;;;;5070331;28;20099;-49
2024/03/26 04:22:31;;;;;;;5.40;1.80;;;5.20;99.90;;;;;;5071536;28;20035;-49
2024/03/26 04:24:56;;;;;;;6.33;1.73;;;5.20;99.90;;;;;;5070087;28;20029;-49
2024/03/26 04:27:22;;;;;;;6.13;2.00;;;5.20;99.90;;;;;;5053491;28;20028;-49
2024/03/26 04:29:47;;;;;;;4.03;1.77;;;5.20;99.90;;;;;;5071385;28;20066;-49
2024/03/26 04:32:13;;;;;;;5.17;1.97;;;5.20;99.90;;;;;;5071464;28;20028;-49
2024/03/26 04:34:39;;;;;;;4.73;1.77;;;5.20;99.90;;;;;;5071291;28;20396;-49
2024/03/26 04:37:04;;;;;;;6.53;2.33;;;5.20;99.90;;;;;;5071310;28;20040;-49
2024/03/26 04:39:30;;;;;;;5.60;1.83;;;5.20;99.90;;;;;;5071427;28;20020;-49
2024/03/26 04:41:56;;;;;;;3.87;1.90;;;5.10;99.90;;;;;;5053617;28;20052;-49
2024/03/26 04:44:22;;;;;;;6.37;2.00;;;5.10;99.90;;;;;;5071179;28;20024;-49
2024/03/26 04:46:48;;;;;;;5.37;1.67;;;5.10;99.90;;;;;;5071239;28;20119;-49
2024/03/26 04:49:14;;;;;;;4.90;1.60;;;5.10;99.90;;;;;;5071402;28;20032;-49
2024/03/26 04:51:40;;;;;;;6.70;1.87;;;5.10;99.90;;;;;;5071595;28;20040;-49
2024/03/26 04:54:06;;;;;;;5.90;2.23;;;5.00;99.90;;;;;;5071601;28;20079;-49
2024/03/26 04:56:32;;;;;;;5.30;1.63;;;5.00;99.90;;;;;;5073775;28;20039;-49
2024/03/26 04:58:58;;;;;;;4.87;1.60;;;5.00;99.90;;;;;;5075451;28;20029;-48
2024/03/26 05:01:23;;;;;;;5.30;2.00;;;4.90;99.90;;;;;;5076507;28;20025;-49
2024/03/26 05:03:49;;;;;;;4.60;2.10;;;4.90;99.90;;;;;;5076417;28;20032;-48
2024/03/26 05:06:14;;;;;;;5.47;2.10;;;4.90;99.90;;;;;;5076368;28;20036;-48
2024/03/26 05:08:43;;;;;;;9.07;2.57;;;4.90;99.90;;;;;;5076722;28;20025;-48
2024/03/26 05:11:08;;;;;;;6.97;2.37;;;4.90;99.90;;;;;;5076849;28;20435;-49
2024/03/26 05:13:34;;;;;;;6.20;2.20;;;4.90;99.90;;;;;;5076650;28;20039;-48
2024/03/26 05:16:00;;;;;;;3.23;1.90;;;4.80;99.90;;;;;;5076137;28;20029;-49
2024/03/26 05:18:25;;;;;;;9.13;2.93;;;4.70;99.90;;;;;;5074514;28;20031;-49
2024/03/26 05:20:52;;;;;;;7.53;2.50;;;4.70;99.90;;;;;;5074388;28;20020;-48
2024/03/26 05:23:18;;;;;;;7.93;2.30;;;4.70;99.90;;;;;;5074498;28;20044;-48
2024/03/26 05:25:44;;;;;;;4.87;2.30;;;4.60;99.90;;;;;;5074223;28;20020;-48
2024/03/26 05:28:10;;;;;;;6.50;2.40;;;4.60;99.90;;;;;;5056406;28;20480;-51
2024/03/26 05:30:37;;;;;;;6.50;2.00;;;4.60;99.90;;;;;;5074259;28;20051;-49
2024/03/26 05:33:02;;;;;;;6.57;2.13;;;4.60;99.90;;;;;;5074226;28;20056;-49
2024/03/26 05:35:30;;;;;;;8.50;2.50;;;4.60;99.90;;;;;;5073941;28;20056;-51
2024/03/26 05:37:58;;;;;;;11.00;2.70;;;4.60;99.90;;;;;;5074145;28;20037;-48
2024/03/26 05:40:24;;;;;;;4.37;1.90;;;4.50;99.90;;;;;;5074064;28;20466;-50
2024/03/26 05:42:49;;;;;;;7.33;2.13;;;4.60;99.90;;;;;;5074117;28;20112;-49
2024/03/26 05:45:15;;;;;;;8.97;2.70;;;4.60;99.90;;;;;;5074071;28;20036;-49
2024/03/26 05:47:40;;;;;;;8.57;3.17;;;4.60;99.90;;;;;;5074049;28;20060;-48
2024/03/26 05:50:06;;;;;;;8.27;2.70;;;4.60;99.90;;;;;;5073900;28;20020;-48
2024/03/26 05:52:32;;;;;;;6.87;2.10;;;4.60;99.90;;;;;;5074134;28;20032;-49
2024/03/26 05:54:58;;;;;;;8.60;2.23;;;4.60;99.90;;;;;;5073904;28;20028;-49
2024/03/26 05:57:23;;;;;;;7.97;3.10;;;4.60;99.90;;;;;;5073912;28;20066;-51
2024/03/26 05:59:49;;;;;;;6.37;2.27;;;4.70;99.90;;;;;;5073866;28;20028;-48
2024/03/26 06:02:14;;;;;;;7.77;2.67;;;4.70;99.90;;;;;;5073962;28;20033;-51
2024/03/26 06:04:41;;;;;;;5.60;2.20;;;4.70;99.90;;;;;;5073630;28;20021;-48
2024/03/26 06:07:07;;;;;;;4.37;2.27;;;4.80;99.90;;;;;;5072485;28;20119;-50
2024/03/26 06:09:33;;;;;;;9.13;3.03;;;4.90;99.90;;;;;;5073586;28;20115;-51
2024/03/26 06:12:00;;;;;;;7.17;2.47;;;5.00;99.90;;;;;;5073625;28;20081;-48
2024/03/26 06:14:26;;;;;;;7.53;2.67;;;5.00;99.90;;;;;;5073408;28;20039;-48
2024/03/26 06:16:51;;;;;;;8.17;2.13;;;5.10;99.90;;;;;;5073273;28;20032;-48
2024/03/26 06:19:18;;;;;;;6.53;2.27;;;5.30;99.90;;;;;;5073527;28;20025;-48
2024/03/26 06:21:44;;;;;;;6.70;1.97;;;5.40;99.90;;;;;;5073276;28;20029;-49
2024/03/26 06:24:10;;;;;;;5.20;1.60;;;5.60;99.90;;;;;;5073478;28;20473;-48
2024/03/26 06:26:36;;;;;;;10.50;2.13;;;5.70;99.90;;;;;;5073149;28;20081;-50
2024/03/26 06:29:02;;;;;;;5.90;2.13;;;5.90;99.90;;;;;;5073264;28;20032;-51
2024/03/26 06:31:27;;;;;;;6.17;2.57;;;6.10;99.90;;;;;;5073106;28;20388;-51
2024/03/26 06:33:53;;;;;;;6.27;1.93;;;6.30;99.90;;;;;;5073176;28;20024;-49
2024/03/26 06:36:18;;;;;;;6.20;1.80;;;6.60;99.90;;;;;;5072980;28;20025;-49
2024/03/26 06:38:44;;;;;;;7.40;1.97;;;6.80;99.90;;;;;;5073240;28;20082;-51
2024/03/26 06:41:10;;;;;;;5.00;1.60;;;6.90;99.90;;;;;;5073027;28;20492;-49
2024/03/26 06:43:35;;;;;;;4.07;1.60;;;7.10;99.90;;;;;;5072920;28;20070;-48
2024/03/26 06:46:02;;;;;;;7.83;1.80;;;7.10;99.90;;;;;;5072786;28;20025;-50
2024/03/26 06:48:27;;;;;;;4.20;1.53;;;7.30;99.90;;;;;;5072829;28;20029;-51
2024/03/26 06:50:53;;;;;;;7.23;2.10;;;7.50;99.90;;;;;;5054923;28;20427;-52
2024/03/26 06:53:18;;;;;;;5.27;1.77;;;7.60;99.90;;;;;;5072818;28;20103;-49
2024/03/26 06:55:44;;;;;;;2.80;1.57;;;7.70;99.90;;;;;;5072513;28;20024;-50
2024/03/26 06:58:10;;;;;;;3.53;1.47;;;7.90;99.90;;;;;;5072704;28;20090;-48
2024/03/26 07:00:35;;;;;;;4.03;1.37;;;8.10;99.90;;;;;;5072716;28;20031;-51
2024/03/26 07:03:01;;;;;;;3.77;1.60;;;8.10;99.90;;;;;;5072607;28;20027;-49
2024/03/26 07:05:27;;;;;;;3.93;1.30;;;8.30;99.90;;;;;;5072328;28;20031;-48
2024/03/26 07:07:52;;;;;;;5.63;2.00;;;8.30;99.90;;;;;;5072544;28;20025;-51
2024/03/26 07:10:18;;;;;;;6.23;1.47;;;8.40;99.90;;;;;;5072476;28;20051;-49
2024/03/26 07:12:43;;;;;;;5.03;1.50;;;8.50;99.90;;;;;;5072362;28;20077;-53
2024/03/26 07:15:10;;;;;;;3.00;1.50;;;8.70;99.90;;;;;;5072329;28;20036;-50
2024/03/26 07:17:38;;;;;;;5.07;1.40;;;8.70;99.90;;;;;;5072187;28;20032;-51
2024/03/26 07:20:05;;;;;;;8.33;2.47;;;8.70;99.90;;;;;;5071965;28;20043;-50
2024/03/26 07:22:31;;;;;;;3.97;1.50;;;8.80;99.90;;;;;;5072359;28;20393;-51
2024/03/26 07:24:56;;;;;;;3.27;1.33;;;8.80;99.90;;;;;;5072002;28;20029;-53
2024/03/26 07:27:22;;;;;;;4.47;1.50;;;8.80;99.90;;;;;;5072137;28;20025;-50
2024/03/26 07:29:48;;;;;;;4.93;1.50;;;8.90;99.90;;;;;;5072148;28;20523;-51
2024/03/26 07:32:14;;;;;;;3.03;1.40;;;8.90;99.90;;;;;;5072247;28;20035;-53
2024/03/26 07:34:40;;;;;;;6.57;1.50;;;8.90;99.90;;;;;;5072027;28;20028;-49
2024/03/26 07:37:05;;;;;;;3.50;1.50;;;9.00;99.90;;;;;;5071890;28;20489;-50
2024/03/26 07:39:31;;;;;;;3.87;1.50;;;9.00;99.90;;;;;;5054360;28;20107;-53
2024/03/26 07:41:57;;;;;;;4.77;1.50;;;9.00;99.90;;;;;;5054086;28;20028;-49
2024/03/26 07:44:23;;;;;;;4.40;2.13;;;9.10;99.90;;;;;;5071839;28;20072;-48
2024/03/26 07:46:48;;;;;;;4.50;1.43;;;9.10;99.90;;;;;;5071894;28;20063;-52
2024/03/26 07:49:14;;;;;;;2.63;1.33;;;9.10;99.90;;;;;;5071913;28;20501;-49
2024/03/26 07:51:39;;;;;;;3.53;1.33;;;9.20;99.90;;;;;;5071811;28;20029;-48
2024/03/26 07:54:05;;;;;;;7.40;1.37;;;9.20;99.90;;;;;;5071874;28;20039;-48
2024/03/26 07:56:32;;;;;;;4.43;1.40;;;9.30;99.90;;;;;;5071547;28;20085;-48
2024/03/26 07:58:58;;;;;;;2.50;1.30;;;9.20;99.90;;;;;;5071798;28;20033;-50
2024/03/26 08:01:24;;;;;;;4.97;1.60;;;9.30;99.90;;;;;;5071675;28;20040;-48
2024/03/26 08:03:50;;;;;;;4.40;1.40;;;9.40;99.90;;;;;;5071668;28;20029;-49
2024/03/26 08:06:16;;;;;;;4.93;1.40;;;9.40;99.90;;;;;;5071533;28;20025;-49
2024/03/26 08:08:41;;;;;;;3.80;1.40;;;9.50;99.90;;;;;;5071901;28;20440;-50
2024/03/26 08:11:12;;;;;;;3.97;1.83;;;9.50;99.90;;;;;;5071671;28;20028;-53
2024/03/26 08:13:38;;;;;;;5.40;1.50;;;9.70;99.90;;;;;;5053790;28;20098;-49
2024/03/26 08:16:04;;;;;;;5.33;1.40;;;9.80;99.90;;;;;;5071500;28;20486;-49
2024/03/26 08:18:31;;;;;;;2.90;1.47;;;9.80;99.90;;;;;;5071623;28;20032;-47
2024/03/26 08:20:56;;;;;;;6.07;1.73;;;10.00;99.90;;;;;;5071718;28;20062;-48
2024/03/26 08:23:22;;;;;;;5.83;1.60;;;10.10;99.90;;;;;;5071638;28;20482;-50
2024/03/26 08:25:48;;;;;;;4.13;1.30;;;10.20;99.90;;;;;;5071424;28;20393;-52
2024/03/26 08:28:14;;;;;;;2.90;1.13;;;10.30;99.70;;;;;;5071463;28;20067;-52
2024/03/26 08:30:39;;;;;;;3.83;1.60;;;10.40;99.80;;;;;;5072919;28;20037;-49
2024/03/26 08:33:07;;;;;;;4.77;1.60;;;10.60;99.90;;;;;;5075629;28;20500;-52
2024/03/26 08:35:41;;;;;;;3.37;1.43;;;10.80;99.40;;;;;;5075305;28;20029;-54
2024/03/26 08:38:07;;;;;;;4.77;1.80;;;11.00;98.70;;;;;;5075467;28;20039;-52
2024/03/26 08:40:33;;;;;;;5.23;1.50;;;11.30;98.30;;;;;;5075229;28;20021;-50
2024/03/26 08:42:59;;;;;;;6.07;1.50;;;11.30;98.30;;;;;;5075374;28;20066;-49
2024/03/26 08:45:25;;;;;;;3.10;1.63;;;11.20;98.60;;;;;;5057349;28;20048;-48
2024/03/26 08:47:51;;;;;;;4.27;1.30;;;11.20;98.50;;;;;;5075217;28;20384;-49
2024/03/26 08:50:18;;;;;;;3.17;1.20;;;11.10;98.30;;;;;;5075103;28;20488;-48
2024/03/26 08:52:44;;;;;;;7.13;1.67;;;11.00;98.60;;;;;;5075083;28;20082;-49
2024/03/26 08:55:10;;;;;;;17.67;7.70;;;11.00;98.50;;;;;;5074927;28;20075;-51
2024/03/26 08:57:35;;;;;;;6.03;2.37;;;11.10;99.40;;;;;;5074007;28;20025;-51
2024/03/26 09:00:03;;;;;;;4.70;1.40;;;11.00;98.70;;;;;;5073812;28;20058;-51
2024/03/26 09:02:29;;;;;;;4.53;1.53;;;11.00;98.50;;;;;;5073768;28;20031;-51
2024/03/26 09:04:55;;;;;;;5.17;1.50;;;11.00;98.60;;;;;;5073462;28;20028;-51
2024/03/26 09:07:21;;;;;;;4.53;1.30;;;10.90;98.60;;;;;;5073725;28;20043;-51
2024/03/26 09:09:47;;;;;;;4.33;2.00;;;10.90;99.00;;;;;;5073567;28;20040;-51
2024/03/26 09:12:12;;;;;;;6.47;2.03;;;10.90;99.00;;;;;;5073593;28;20020;-52
2024/03/26 09:14:38;;;;;;;5.73;1.93;;;10.80;98.60;;;;;;5073566;28;20075;-50
2024/03/26 09:17:03;;;;;;;5.13;1.77;;;10.70;98.70;;;;;;5073421;28;20033;-53
2024/03/26 09:19:29;;;;;;;3.77;1.47;;;10.80;99.10;;;;;;5073651;28;20024;-48
2024/03/26 09:21:55;;;;;;;3.80;1.10;;;10.80;99.10;;;;;;5073463;28;20082;-48
2024/03/26 09:24:21;;;;;;;2.60;1.13;;;10.80;98.90;;;;;;5073299;28;20016;-50
2024/03/26 09:26:47;;;;;;;3.50;1.30;;;10.70;98.90;;;;;;5073873;28;20480;-48
2024/03/26 09:29:12;;;;;;;2.67;1.10;;;10.80;99.10;;;;;;5073463;28;20025;-49
2024/03/26 09:31:38;;;;;;;4.43;1.50;;;10.90;98.80;;;;;;5073138;28;20033;-51
2024/03/26 09:34:04;;;;;;;3.87;1.20;;;10.90;99.10;;;;;;5073233;28;20055;-52
2024/03/26 09:36:30;;;;;;;4.53;1.50;;;11.00;99.10;;;;;;5073051;28;20059;-53
2024/03/26 09:38:56;;;;;;;3.83;1.53;;;11.10;99.00;;;;;;5073319;28;20057;-50
2024/03/26 09:41:22;;;;;;;3.27;1.50;;;11.20;99.00;;;;;;5072912;28;20020;-49
2024/03/26 09:43:52;;;;;;;4.77;2.10;;;11.20;98.60;;;;;;5073144;28;20111;-48
2024/03/26 09:46:18;;;;;;;4.80;1.63;;;11.20;98.80;;;;;;5073075;28;20407;-48
2024/03/26 09:48:46;;;;;;;3.73;1.53;;;11.10;98.80;;;;;;5073077;28;20028;-52
2024/03/26 09:51:13;;;;;;;5.60;1.90;;;11.20;99.00;;;;;;5072950;28;20044;-50
2024/03/26 09:53:40;;;;;;;31.90;17.03;;;11.30;99.20;;;;;;5072891;28;20024;-49
2024/03/26 09:56:06;;;;;;;4.97;1.40;;;11.30;99.50;;;;;;5036173;28;1046700;-48
2024/03/26 09:58:32;;;;;;;12.87;2.70;;;11.50;98.80;;;;;;5074024;28;20062;-52
2024/03/26 10:01:01;;;;;;;6.20;1.90;;;11.60;98.40;;;;;;5074061;28;20115;-48
2024/03/26 10:03:27;;;;;;;4.47;1.53;;;11.50;98.60;;;;;;5073811;28;20033;-52
2024/03/26 10:05:53;;;;;;;4.20;1.20;;;11.30;98.50;;;;;;5073652;28;20028;-50
2024/03/26 10:08:19;;;;;;;6.23;1.30;;;11.30;98.90;;;;;;5073659;28;20032;-50
2024/03/26 10:10:44;;;;;;;4.33;1.30;;;11.20;98.90;;;;;;5073660;28;20039;-51
2024/03/26 10:13:11;;;;;;;4.90;1.20;;;11.40;99.30;;;;;;5073795;28;20463;-49
2024/03/26 10:15:46;;;;;;;2.70;1.30;;;11.40;99.00;;;;;;5073397;28;20633;-49
2024/03/26 10:18:12;;;;;;;6.80;1.63;;;11.60;98.70;;;;;;5073558;28;20043;-52
2024/03/26 10:20:38;;;;;;;4.00;1.40;;;11.70;98.70;;;;;;5073424;28;20032;-50
2024/03/26 10:23:05;;;;;;;6.67;1.80;;;11.90;98.80;;;;;;5073326;28;20032;-51
2024/03/26 10:25:31;;;;;;;5.57;1.47;;;11.90;98.80;;;;;;5055225;28;20028;-53
2024/03/26 10:27:57;;;;;;;4.67;1.60;;;12.00;99.10;;;;;;5073282;28;20082;-52
2024/03/26 10:30:23;;;;;;;4.00;1.60;;;12.20;98.70;;;;;;5073112;28;20082;-50
2024/03/26 10:32:55;;;;;;;3.63;1.27;;;12.10;98.40;;;;;;5073039;28;20028;-51
2024/03/26 10:35:24;;;;;;;5.70;1.50;;;12.00;98.80;;;;;;5072944;28;20086;-54
2024/03/26 10:37:52;;;;;;;5.07;1.67;;;11.90;99.00;;;;;;5073164;28;20115;-51
2024/03/26 10:40:35;;;;;;;9.53;3.03;;;11.90;99.00;;;;;;5073066;28;20116;-51
2024/03/26 10:43:01;;;;;;;5.60;1.90;;;11.70;99.40;;;;;;5073221;28;20055;-48
2024/03/26 10:45:28;;;;;;;9.23;2.83;;;11.80;99.50;;;;;;5055036;28;20032;-51
2024/03/26 10:47:54;;;;;;;6.17;1.60;;;11.70;99.60;;;;;;5073156;28;20024;-49
2024/03/26 10:50:21;;;;;;;4.37;1.70;;;11.70;99.90;;;;;;5072940;28;20135;-49
2024/03/26 10:52:48;;;;;;;3.00;1.27;;;11.70;99.90;;;;;;5072643;28;20032;-50
2024/03/26 10:55:14;;;;;;;2.87;1.37;;;11.60;99.70;;;;;;5072567;28;20055;-52
2024/03/26 10:57:44;;;;;;;4.37;1.47;;;11.80;99.90;;;;;;5054780;28;20033;-51
2024/03/26 11:00:12;;;;;;;5.83;2.10;;;11.90;99.90;;;;;;5072685;28;20040;-52
2024/03/26 11:02:46;;;;;;;4.07;1.70;;;12.00;99.80;;;;;;5072529;28;20036;-50
2024/03/26 11:05:14;;;;;;;4.17;1.30;;;12.00;99.50;;;;;;5072478;28;20119;-49
2024/03/26 11:07:42;;;;;;;4.07;1.27;;;11.90;99.90;;;;;;5072643;28;20077;-52
2024/03/26 11:10:15;;;;;;;3.57;1.10;;;12.00;99.70;;;;;;5072397;28;20036;-48
2024/03/26 11:12:42;;;;;;;4.37;1.50;;;12.10;99.30;;;;;;5072395;28;20063;-49
2024/03/26 11:15:17;;;;;;;5.00;1.50;;;12.30;99.60;;;;;;5072346;28;20040;-48
2024/03/26 11:17:55;;;;;;;3.73;1.50;;;12.40;99.50;;;;;;5072329;28;20032;-48
2024/03/26 11:20:23;;;;;;;5.63;1.55;;;12.50;99.30;;;;;;5072540;28;20032;-51
2024/03/26 11:23:03;;;;;;;5.67;1.60;;;12.70;99.40;;;;;;5072483;28;20029;-48
2024/03/26 11:25:30;;;;;;;4.80;1.30;;;12.80;99.30;;;;;;5072597;28;20036;-49
2024/03/26 11:27:58;;;;;;;3.90;1.43;;;13.00;98.50;;;;;;5072890;28;20064;-48
2024/03/26 11:30:31;;;;;;;5.88;1.40;;;13.10;98.90;;;;;;5074167;28;20082;-48
2024/03/26 11:32:58;;;;;;;3.58;1.75;;;13.10;98.60;;;;;;5073712;28;20406;-49
2024/03/26 11:35:28;;;;;;;4.97;1.75;;;13.30;98.80;;;;;;5072455;28;20036;-49
2024/03/26 11:38:02;;;;;;;3.25;1.30;;;13.50;98.60;;;;;;5072240;28;20036;-49
2024/03/26 11:40:29;;;;;;;5.15;1.20;;;13.80;99.00;;;;;;5072500;28;20028;-49
2024/03/26 11:42:56;;;;;;;6.45;1.75;;;14.10;98.30;;;;;;5071295;28;20073;-48
2024/03/26 11:45:21;;;;;;;2.42;1.25;;;14.30;97.90;;;;;;5072191;28;20039;-49
2024/03/26 11:47:47;;;;;;;5.55;1.48;;;14.60;97.50;;;;;;5073646;28;20123;-48
2024/03/26 11:50:13;;;;;;;4.18;1.60;;;14.90;97.20;;;;;;5072469;28;20028;-49
2024/03/26 11:52:39;;;;;;;4.85;1.40;;;14.90;97.20;;;;;;5072359;28;20120;-48
2024/03/26 11:55:06;;;;;;;3.33;1.25;;;14.80;97.50;;;;;;5072178;28;20035;-48
2024/03/26 11:57:32;;;;;;;4.38;1.65;;;15.00;97.60;;;;;;5071875;28;20029;-49
2024/03/26 11:59:58;;;;;;;5.60;1.83;;;14.90;97.20;;;;;;5053586;28;20058;-53
2024/03/26 12:02:24;;;;;;;4.38;1.48;;;14.90;97.30;;;;;;5071741;28;20369;-49
2024/03/26 12:04:49;;;;;;;3.53;1.40;;;15.00;97.40;;;;;;5070590;28;20074;-49
2024/03/26 12:07:20;;;;;;;4.13;1.30;;;14.90;97.40;;;;;;5071527;28;20025;-51
2024/03/26 12:09:46;;;;;;;5.10;1.70;;;14.70;97.80;;;;;;5071620;28;20056;-52
2024/03/26 12:12:11;;;;;;;3.63;1.80;;;14.60;97.80;;;;;;5071704;28;20029;-50
2024/03/26 12:14:38;;;;;;;4.57;1.48;;;14.50;98.20;;;;;;5071466;28;20044;-52
2024/03/26 12:17:05;;;;;;;6.28;1.52;;;14.20;98.30;;;;;;5053521;28;20068;-48
2024/03/26 12:19:30;;;;;;;4.68;1.65;;;14.20;98.60;;;;;;5071553;28;20384;-51
2024/03/26 12:21:56;;;;;;;5.03;1.45;;;14.20;99.00;;;;;;5071634;28;20037;-53
2024/03/26 12:24:22;;;;;;;2.97;1.30;;;14.20;98.70;;;;;;5071589;28;20047;-50
2024/03/26 12:26:48;;;;;;;5.85;1.55;;;14.40;98.80;;;;;;5071553;28;20473;-48
2024/03/26 12:29:13;;;;;;;3.28;1.60;;;14.50;98.40;;;;;;5071507;28;20021;-50
2024/03/26 12:31:39;;;;;;;3.33;1.10;;;14.60;98.40;;;;;;5071631;28;20082;-52
2024/03/26 12:34:25;;;;;;;5.57;1.50;;;14.70;98.50;;;;;;5071571;28;20024;-52
2024/03/26 12:36:51;;;;;;;5.90;1.40;;;14.70;98.20;;;;;;5071420;28;20021;-51
2024/03/26 12:39:16;;;;;;;4.28;1.50;;;14.70;98.30;;;;;;5071797;28;20499;-49
2024/03/26 12:41:42;;;;;;;2.67;1.40;;;14.80;98.50;;;;;;5071303;28;20031;-49
2024/03/26 12:44:13;;;;;;;3.58;1.40;;;15.00;98.40;;;;;;5071263;28;20499;-51
2024/03/26 12:46:39;;;;;;;6.68;1.90;;;15.00;98.30;;;;;;5071060;28;20028;-51
2024/03/26 12:49:05;;;;;;;5.57;1.90;;;15.00;98.30;;;;;;5071347;28;20112;-48